Time;durP1;ratioP1;P1;durP2;ratioP2;P2;SDS_P1;SDS_P2;PMS_P1;PMS_P2;Temp;Humidity;BMP_temperature;BMP_pressure;BME280_temperature;BME280_humidity;BME280_pressure;Samples;Min_cycle;Max_cycle;Signal;HPM_P1;HPM_P2
2023/05/28 00:00:28;;;;;;;15.32;9.80;;;;;;;21.95;47.10;102304.28;5006399;28;20137;-33
2023/05/28 00:02:56;;;;;;;19.13;9.95;;;;;;;21.94;47.07;102302.53;5007772;28;20503;-33
2023/05/28 00:05:23;;;;;;;15.98;9.27;;;;;;;21.93;47.26;102298.16;5005571;28;20050;-33
2023/05/28 00:07:50;;;;;;;16.15;9.85;;;;;;;21.93;47.72;102304.41;5006250;28;20449;-33
2023/05/28 00:10:16;;;;;;;18.75;10.55;;;;;;;21.92;47.11;102297.31;5005111;28;20134;-33
2023/05/28 00:12:43;;;;;;;20.55;10.15;;;;;;;21.92;47.23;102294.59;5006454;28;20050;-33
2023/05/28 00:15:10;;;;;;;17.10;9.57;;;;;;;21.91;47.56;102290.22;5008773;28;20057;-33
2023/05/28 00:17:37;;;;;;;17.52;10.10;;;;;;;21.91;47.19;102289.34;5002534;28;20081;-33
2023/05/28 00:20:04;;;;;;;17.45;10.40;;;;;;;21.90;47.30;102285.78;5003223;28;20375;-36
2023/05/28 00:22:32;;;;;;;19.00;10.15;;;;;;;21.90;47.44;102293.03;5008279;28;20153;-33
2023/05/28 00:24:58;;;;;;;17.50;9.40;;;;;;;21.89;47.20;102285.94;5009894;28;20108;-33
2023/05/28 00:27:26;;;;;;;18.05;9.93;;;;;;;21.89;47.26;102291.34;5004490;28;20072;-32
2023/05/28 00:29:53;;;;;;;18.13;9.73;;;;;;;21.86;47.41;102292.47;5004986;28;20324;-33
2023/05/28 00:32:19;;;;;;;18.35;9.95;;;;;;;21.85;47.35;102279.97;5000634;28;20725;-33
2023/05/28 00:34:46;;;;;;;15.32;8.93;;;;;;;21.85;47.39;102279.13;5012967;28;20046;-33
2023/05/28 00:37:12;;;;;;;19.08;9.85;;;;;;;21.85;47.63;102268.31;5004077;28;20157;-33
2023/05/28 00:39:40;;;;;;;17.33;10.68;;;;;;;21.83;47.62;102271.19;5007412;28;20049;-32
2023/05/28 00:42:07;;;;;;;17.73;9.40;;;;;;;21.83;47.67;102263.09;5006218;28;20064;-33
2023/05/28 00:44:34;;;;;;;15.73;8.98;;;;;;;21.82;47.78;102255.09;5002157;28;20054;-33
2023/05/28 00:47:01;;;;;;;15.80;9.43;;;;;;;21.81;47.77;102253.41;5034015;28;20088;-33
2023/05/28 00:49:28;;;;;;;16.92;9.10;;;;;;;21.80;47.72;102251.72;5002493;28;20891;-32
2023/05/28 00:51:56;;;;;;;14.95;8.82;;;;;;;21.80;47.60;102247.16;5002827;28;20046;-33
2023/05/28 00:54:23;;;;;;;17.00;9.45;;;;;;;21.79;47.86;102241.91;5000082;28;20130;-33
2023/05/28 00:56:52;;;;;;;15.75;9.18;;;;;;;21.77;47.82;102244.75;5004545;28;20054;-32
2023/05/28 00:59:20;;;;;;;13.50;8.93;;;;;;;21.76;47.88;102245.75;5000813;28;20053;-33
2023/05/28 01:01:47;;;;;;;14.35;8.77;;;;;;;21.76;47.68;102243.06;4998322;28;20046;-32
2023/05/28 01:04:14;;;;;;;19.58;9.63;;;;;;;21.75;47.86;102249.47;5003254;28;20696;-33
2023/05/28 01:06:43;;;;;;;16.55;8.80;;;;;;;21.74;47.80;102254.97;5004495;28;20041;-32
2023/05/28 01:09:11;;;;;;;15.95;9.40;;;;;;;21.73;48.10;102251.44;4999221;28;20057;-33
2023/05/28 01:11:40;;;;;;;14.00;8.52;;;;;;;21.73;47.93;102253.28;5002567;28;20053;-33
2023/05/28 01:14:08;;;;;;;15.63;8.80;;;;;;;21.73;48.13;102247.88;5002806;28;20061;-32
2023/05/28 01:16:35;;;;;;;14.02;9.02;;;;;;;21.71;48.00;102255.25;5004282;28;20633;-33
2023/05/28 01:19:08;;;;;;;16.50;9.05;;;;;;;21.71;48.16;102249.84;5002237;28;20046;-35
2023/05/28 01:21:41;;;;;;;16.95;9.45;;;;;;;21.69;47.90;102258.97;5001651;28;20105;-34
2023/05/28 01:24:09;;;;;;;13.85;8.68;;;;;;;21.68;48.12;102251.88;5002974;28;20070;-33
2023/05/28 01:26:37;;;;;;;14.05;7.90;;;;;;;21.68;48.11;102251.88;4998711;28;20050;-33
2023/05/28 01:29:14;;;;;;;15.32;9.32;;;;;;;21.67;48.30;102242.06;5000889;28;20057;-32
2023/05/28 01:31:41;;;;;;;16.23;8.23;;;;;;;21.68;48.23;102246.47;5004825;28;20053;-33
2023/05/28 01:34:09;;;;;;;13.55;7.97;;;;;;;21.67;47.99;102244.78;5002891;28;20058;-32
2023/05/28 01:36:43;;;;;;;12.50;8.27;;;;;;;21.67;48.12;102246.63;5003335;28;20661;-33
2023/05/28 01:39:15;;;;;;;11.63;7.47;;;;;;;21.68;48.41;102248.31;4999616;28;20437;-33
2023/05/28 01:41:45;;;;;;;13.05;8.27;;;;;;;21.66;48.34;102248.44;5002880;28;20077;-32
2023/05/28 01:44:16;;;;;;;15.13;8.65;;;;;;;21.66;48.28;102250.28;5002761;28;20115;-33
2023/05/28 01:46:45;;;;;;;15.85;8.50;;;;;;;21.66;48.49;102255.69;5001851;28;20054;-33
2023/05/28 01:49:12;;;;;;;14.65;8.48;;;;;;;21.65;48.35;102260.25;5000583;28;20692;-33
2023/05/28 01:51:39;;;;;;;13.65;7.95;;;;;;;21.64;48.47;102263.94;5002460;28;20100;-33
2023/05/28 01:54:05;;;;;;;16.33;7.90;;;;;;;21.64;48.39;102255.84;5004347;28;20064;-33
2023/05/28 01:56:32;;;;;;;13.75;7.85;;;;;;;21.63;48.15;102254.16;5004087;28;20085;-32
2023/05/28 01:58:59;;;;;;;14.10;7.72;;;;;;;21.62;48.40;102249.72;5003686;28;20384;-33
2023/05/28 02:01:36;;;;;;;13.60;7.38;;;;;;;21.62;48.43;102241.63;4999441;28;20042;-34
2023/05/28 02:04:03;;;;;;;11.35;7.18;;;;;;;21.61;48.27;102244.47;5000626;28;20077;-33
2023/05/28 02:06:32;;;;;;;13.45;7.43;;;;;;;21.61;48.64;102242.63;5004890;28;20393;-33
2023/05/28 02:08:58;;;;;;;14.32;7.65;;;;;;;21.61;48.52;102250.72;5002908;28;20116;-33
2023/05/28 02:11:27;;;;;;;15.30;8.02;;;;;;;21.61;48.10;102247.19;5000837;28;20323;-32
2023/05/28 02:13:54;;;;;;;12.93;7.15;;;;;;;21.60;48.67;102242.78;5003502;28;20084;-33
2023/05/28 02:16:22;;;;;;;12.90;7.35;;;;;;;21.60;48.42;102245.50;4999243;28;20062;-32
2023/05/28 02:18:52;;;;;;;13.13;7.25;;;;;;;21.59;48.44;102244.63;5001168;28;20723;-32
2023/05/28 02:21:19;;;;;;;12.25;7.68;;;;;;;21.58;48.42;102242.06;5002393;28;20054;-33
2023/05/28 02:23:48;;;;;;;12.25;7.15;;;;;;;21.57;48.64;102243.91;5001338;28;20386;-33
2023/05/28 02:26:15;;;;;;;13.90;7.22;;;;;;;21.57;48.29;102241.22;4999524;28;20053;-33
2023/05/28 02:28:43;;;;;;;11.98;7.00;;;;;;;21.58;48.30;102244.75;5000726;28;20054;-32
2023/05/28 02:31:12;;;;;;;11.40;6.95;;;;;;;21.56;48.67;102242.22;5001987;28;20050;-33
2023/05/28 02:33:43;;;;;;;10.95;6.80;;;;;;;21.55;48.47;102237.81;4997865;28;20056;-32
2023/05/28 02:36:13;;;;;;;11.98;6.88;;;;;;;;;;5000659;28;20050;-32
2023/05/28 02:38:41;;;;;;;12.43;7.10;;;;;;;21.53;48.28;102242.50;4998131;28;20120;-33
2023/05/28 02:41:08;;;;;;;12.77;7.13;;;;;;;21.55;48.55;102243.22;5000201;28;20152;-33
2023/05/28 02:43:35;;;;;;;11.85;6.80;;;;;;;;;;5003143;28;20069;-33
2023/05/28 02:46:01;;;;;;;11.68;6.40;;;;;;;21.53;48.46;102250.59;5008441;28;20373;-32
2023/05/28 02:48:28;;;;;;;10.73;6.07;;;;;;;21.51;48.59;102255.28;5001815;28;20061;-33
2023/05/28 02:50:55;;;;;;;13.85;6.95;;;;;;;21.51;48.41;102249.91;4998501;28;20468;-33
2023/05/28 02:53:22;;;;;;;12.77;6.68;;;;;;;21.52;48.54;102248.06;4999531;28;20104;-32
2023/05/28 02:55:50;;;;;;;12.57;6.43;;;;;;;21.51;48.47;102249.91;5006837;28;20133;-33
2023/05/28 02:58:17;;;;;;;10.60;6.32;;;;;;;21.51;49.10;102246.31;5003966;28;20490;-34
2023/05/28 03:00:44;;;;;;;8.60;5.50;;;;;;;21.50;48.72;102253.56;5000646;28;20065;-32
2023/05/28 03:03:11;;;;;;;10.80;6.68;;;;;;;21.50;48.47;102252.72;5000338;28;20116;-33
2023/05/28 03:05:37;;;;;;;12.57;6.50;;;;;;;21.48;48.72;102258.28;4999870;28;20104;-32
2023/05/28 03:08:04;;;;;;;12.13;6.60;;;;;;;21.49;48.74;102256.41;5001457;28;20053;-33
2023/05/28 03:10:31;;;;;;;10.43;5.78;;;;;;;21.48;48.80;102262.81;5007874;28;20092;-33
2023/05/28 03:12:57;;;;;;;12.15;6.60;;;;;;;21.48;48.76;102254.72;5007294;28;20100;-32
2023/05/28 03:15:27;;;;;;;8.15;5.32;;;;;;;21.48;48.86;102257.41;5001327;28;20050;-32
2023/05/28 03:17:54;;;;;;;11.70;6.55;;;;;;;21.46;48.95;102252.16;5001024;28;20058;-32
2023/05/28 03:20:21;;;;;;;11.43;5.93;;;;;;;21.46;48.83;102257.53;5001990;28;20493;-33
2023/05/28 03:22:48;;;;;;;9.30;5.45;;;;;;;21.46;48.80;102257.53;5001651;28;20133;-33
2023/05/28 03:25:15;;;;;;;9.45;5.72;;;;;;;21.45;48.90;102263.94;5001650;28;20343;-33
2023/05/28 03:27:42;;;;;;;11.93;5.70;;;;;;;21.44;48.75;102260.41;5005171;28;20327;-34
2023/05/28 03:30:09;;;;;;;10.02;5.90;;;;;;;21.43;48.90;102258.69;5000587;28;20073;-32
2023/05/28 03:32:36;;;;;;;9.90;5.45;;;;;;;21.44;49.06;102259.53;5000016;28;20073;-32
2023/05/28 03:35:03;;;;;;;11.38;5.53;;;;;;;21.43;48.81;102266.78;5001631;28;20393;-33
2023/05/28 03:37:30;;;;;;;8.90;5.55;;;;;;;21.42;49.18;102262.38;5004052;28;20042;-33
2023/05/28 03:39:57;;;;;;;8.45;4.88;;;;;;;21.41;49.06;102262.53;5006804;28;20430;-33
2023/05/28 03:42:23;;;;;;;8.40;5.32;;;;;;;21.41;49.11;102257.13;5005732;28;20133;-33
2023/05/28 03:44:50;;;;;;;10.35;5.20;;;;;;;21.41;49.01;102260.66;5002646;28;20411;-33
2023/05/28 03:47:16;;;;;;;10.32;5.07;;;;;;;21.40;49.02;102261.66;5004335;28;20049;-33
2023/05/28 03:49:43;;;;;;;10.10;4.63;;;;;;;21.39;49.30;102259.13;5005661;28;20190;-32
2023/05/28 03:52:10;;;;;;;10.30;5.07;;;;;;;21.40;49.05;102258.97;5004783;28;20415;-33
2023/05/28 03:54:37;;;;;;;10.13;5.10;;;;;;;21.38;49.00;102260.94;5007062;28;20345;-33
2023/05/28 03:57:03;;;;;;;9.48;5.15;;;;;;;21.38;48.94;102277.13;5035039;28;20054;-33
2023/05/28 03:59:30;;;;;;;7.68;4.53;;;;;;;21.38;48.81;102270.88;5001675;28;20086;-33
2023/05/28 04:01:57;;;;;;;9.45;5.20;;;;;;;21.38;48.98;102273.59;5003888;28;20130;-32
2023/05/28 04:04:23;;;;;;;10.07;4.82;;;;;;;21.38;48.96;102273.59;5002543;28;20076;-33
2023/05/28 04:06:50;;;;;;;8.32;4.43;;;;;;;21.38;48.78;102260.09;5001608;28;20265;-32
2023/05/28 04:09:17;;;;;;;9.10;4.63;;;;;;;21.36;49.00;102262.94;5006006;28;20045;-32
2023/05/28 04:11:44;;;;;;;11.82;5.10;;;;;;;21.36;48.95;102260.25;5002298;28;20077;-32
2023/05/28 04:14:10;;;;;;;7.63;4.43;;;;;;;21.36;48.84;102264.78;5006972;28;20049;-32
2023/05/28 04:16:37;;;;;;;8.52;4.47;;;;;;;21.35;48.80;102263.09;5006660;28;20120;-32
2023/05/28 04:19:04;;;;;;;9.30;4.60;;;;;;;21.35;48.91;102266.66;5003343;28;20043;-33
2023/05/28 04:21:31;;;;;;;7.22;4.40;;;;;;;21.34;49.17;102275.72;5000015;28;20054;-32
2023/05/28 04:23:58;;;;;;;9.00;4.90;;;;;;;21.35;49.09;102282.81;5002956;28;20088;-32
2023/05/28 04:26:24;;;;;;;6.53;4.20;;;;;;;21.35;49.04;102282.81;5000821;28;20077;-32
2023/05/28 04:28:52;;;;;;;6.50;3.97;;;;;;;21.35;49.14;102280.13;5003419;28;20457;-32
2023/05/28 04:31:19;;;;;;;7.32;4.18;;;;;;;21.35;49.09;102285.53;5003739;28;20060;-34
2023/05/28 04:33:46;;;;;;;9.27;4.43;;;;;;;21.34;48.83;102286.50;5002268;28;20064;-32
2023/05/28 04:36:13;;;;;;;6.97;4.03;;;;;;;21.35;48.99;102285.53;5006970;28;20049;-33
2023/05/28 04:38:41;;;;;;;7.97;4.25;;;;;;;21.36;48.93;102294.47;5006684;28;20085;-32
2023/05/28 04:41:08;;;;;;;7.00;4.20;;;;;;;21.37;49.10;102286.22;5006259;28;20056;-32
2023/05/28 04:43:36;;;;;;;8.90;4.47;;;;;;;21.37;49.17;102283.53;4997969;28;20445;-33
2023/05/28 04:46:03;;;;;;;8.63;4.85;;;;;;;21.38;49.17;102285.22;5036448;28;20046;-32
2023/05/28 04:48:35;;;;;;;6.82;4.18;;;;;;;21.38;48.88;102277.13;5002577;28;20413;-32
2023/05/28 04:51:05;;;;;;;7.47;4.10;;;;;;;21.40;48.73;102285.09;5002273;28;20422;-33
2023/05/28 04:53:33;;;;;;;9.25;4.10;;;;;;;21.39;48.83;102275.31;5003981;28;20774;-33
2023/05/28 04:56:00;;;;;;;8.60;3.90;;;;;;;21.40;48.90;102277.84;5002585;28;20045;-32
2023/05/28 04:58:27;;;;;;;8.73;3.85;;;;;;;21.41;49.13;102293.03;5001253;28;20125;-32
2023/05/28 05:00:55;;;;;;;6.88;3.78;;;;;;;21.43;49.07;102284.81;5003726;28;20433;-33
2023/05/28 05:03:22;;;;;;;7.22;4.28;;;;;;;21.44;49.10;102290.06;5029827;28;20449;-33
2023/05/28 05:05:49;;;;;;;8.70;4.05;;;;;;;21.47;49.15;102283.56;5002255;28;20050;-32
2023/05/28 05:08:16;;;;;;;7.43;3.80;;;;;;;21.48;48.92;102289.78;5003397;28;20054;-33
2023/05/28 05:10:43;;;;;;;6.55;3.53;;;;;;;21.50;48.75;102283.25;5000641;28;20792;-32
2023/05/28 05:13:09;;;;;;;6.03;3.60;;;;;;;21.51;48.81;102284.97;4999312;28;20054;-33
2023/05/28 05:15:36;;;;;;;5.88;3.60;;;;;;;21.54;48.90;102287.34;5001723;28;20092;-33
2023/05/28 05:18:03;;;;;;;6.68;3.70;;;;;;;21.57;48.77;102287.09;5001061;28;20149;-33
2023/05/28 05:20:29;;;;;;;6.40;3.90;;;;;;;21.58;48.77;102291.47;5004023;28;20059;-32
2023/05/28 05:22:56;;;;;;;6.78;4.25;;;;;;;21.59;48.74;102293.22;5006152;28;20057;-32
2023/05/28 05:25:23;;;;;;;8.30;3.95;;;;;;;21.60;48.42;102289.50;5002331;28;20054;-33
2023/05/28 05:27:50;;;;;;;7.57;4.30;;;;;;;21.64;48.68;102293.63;5003254;28;20524;-33
2023/05/28 05:30:17;;;;;;;6.40;3.55;;;;;;;21.65;48.34;102289.94;5004415;28;20100;-36
2023/05/28 05:32:44;;;;;;;6.40;3.55;;;;;;;21.68;48.44;102294.19;5003198;28;20054;-33
2023/05/28 05:35:11;;;;;;;8.18;3.80;;;;;;;21.69;48.72;102285.09;5013093;28;20054;-32
2023/05/28 05:37:38;;;;;;;5.50;3.70;;;;;;;21.71;48.35;102293.91;5003642;28;20046;-33
2023/05/28 05:40:05;;;;;;;6.00;3.45;;;;;;;21.75;48.53;102291.75;4999544;28;20074;-32
2023/05/28 05:42:32;;;;;;;5.93;3.17;;;;;;;21.76;48.49;102294.34;5000818;28;20102;-32
2023/05/28 05:44:59;;;;;;;7.45;3.58;;;;;;;21.78;48.34;102286.94;5001166;28;20096;-32
2023/05/28 05:47:25;;;;;;;8.07;3.60;;;;;;;21.82;48.51;102290.19;4997277;28;20133;-32
2023/05/28 05:49:52;;;;;;;11.20;4.88;;;;;;;21.84;48.40;102289.06;4997765;28;20046;-33
2023/05/28 05:52:19;;;;;;;10.15;5.55;;;;;;;21.88;48.16;102289.63;5000664;28;20042;-33
2023/05/28 05:54:45;;;;;;;11.00;5.85;;;;;;;21.88;48.33;102293.19;5034698;28;20058;-33
2023/05/28 05:57:12;;;;;;;10.68;6.22;;;;;;;21.92;48.06;102299.16;5001133;28;20101;-32
2023/05/28 05:59:39;;;;;;;9.70;5.75;;;;;;;21.93;48.46;102290.06;5000659;28;20053;-33
2023/05/28 06:02:06;;;;;;;10.68;6.45;;;;;;;21.94;48.23;102289.91;4994082;28;20073;-32
2023/05/28 06:04:33;;;;;;;12.80;6.78;;;;;;;21.97;47.81;102296.00;5000356;28;20073;-33
2023/05/28 06:07:04;;;;;;;12.13;5.90;;;;;;;21.97;47.95;102287.91;5000159;28;20054;-33
2023/05/28 06:09:31;;;;;;;13.40;7.35;;;;;;;21.96;47.57;102295.16;5005009;28;20125;-32
2023/05/28 06:11:59;;;;;;;13.68;6.72;;;;;;;21.96;47.76;102294.31;5005044;28;20057;-34
2023/05/28 06:14:27;;;;;;;11.77;7.25;;;;;;;21.97;47.41;102304.97;5003739;28;20426;-33
2023/05/28 06:16:53;;;;;;;13.15;6.85;;;;;;;21.97;47.71;102301.41;5000199;28;20062;-32
2023/05/28 06:19:21;;;;;;;15.73;7.68;;;;;;;21.97;47.86;102304.97;5001626;28;20050;-33
2023/05/28 06:21:48;;;;;;;11.55;7.13;;;;;;;21.96;47.79;102303.25;5006514;28;20053;-33
2023/05/28 06:24:14;;;;;;;12.57;6.97;;;;;;;21.97;48.00;102306.81;5007801;28;20050;-34
2023/05/28 06:26:41;;;;;;;14.05;7.88;;;;;;;21.96;47.69;102307.81;5000202;28;20096;-33
2023/05/28 06:29:09;;;;;;;14.68;8.35;;;;;;;21.96;47.38;102303.25;4996453;28;20053;-32
2023/05/28 06:31:36;;;;;;;16.60;8.48;;;;;;;21.94;47.87;102300.69;4995578;28;20402;-32
2023/05/28 06:34:03;;;;;;;14.48;8.20;;;;;;;21.94;47.91;102303.38;5001981;28;20444;-33
2023/05/28 06:36:30;;;;;;;17.15;9.10;;;;;;;21.94;47.80;102294.44;4996013;28;20342;-32
2023/05/28 06:38:56;;;;;;;16.10;9.20;;;;;;;21.94;47.71;102289.91;5000765;28;20080;-32
2023/05/28 06:41:23;;;;;;;19.50;9.00;;;;;;;21.93;47.58;102299.00;4997272;28;20057;-33
2023/05/28 06:43:50;;;;;;;15.52;9.05;;;;;;;21.93;47.97;102298.16;4999082;28;20508;-33
2023/05/28 06:46:17;;;;;;;15.23;9.07;;;;;;;21.93;47.61;102304.41;4997207;28;20054;-33
2023/05/28 06:48:43;;;;;;;17.67;9.90;;;;;;;21.93;47.45;102299.00;4999105;28;20073;-32
2023/05/28 06:51:10;;;;;;;19.75;9.50;;;;;;;21.94;47.36;102302.53;4997368;28;20073;-32
2023/05/28 06:53:38;;;;;;;15.32;9.75;;;;;;;21.94;47.56;102299.84;4997401;28;20042;-32
2023/05/28 06:56:06;;;;;;;19.35;10.55;;;;;;;21.94;47.47;102300.69;4997221;28;20404;-33
2023/05/28 06:58:32;;;;;;;20.35;10.82;;;;;;;21.96;47.68;102300.56;4999155;28;20050;-32
2023/05/28 07:01:01;;;;;;;20.70;11.70;;;;;;;21.96;47.57;102294.31;4998870;28;20054;-33
2023/05/28 07:03:28;;;;;;;22.90;12.45;;;;;;;21.98;47.81;102305.81;4999588;28;20430;-33
2023/05/28 07:05:54;;;;;;;19.88;12.68;;;;;;;21.98;47.55;102301.25;4999183;28;20165;-32
2023/05/28 07:08:22;;;;;;;24.92;13.43;;;;;;;21.98;47.92;102300.41;4998255;28;20511;-33
2023/05/28 07:10:48;;;;;;;25.70;14.13;;;;;;;21.99;47.31;102319.19;5002218;28;20050;-33
2023/05/28 07:13:15;;;;;;;26.95;14.75;;;;;;;22.00;47.77;102315.47;5004980;28;20049;-33
2023/05/28 07:15:41;;;;;;;31.25;15.55;;;;;;;22.00;47.77;102312.78;5000820;28;20421;-32
2023/05/28 07:18:08;;;;;;;27.73;16.00;;;;;;;22.01;47.35;102314.47;5000895;28;20085;-33
2023/05/28 07:20:35;;;;;;;31.05;18.83;;;;;;;22.01;47.84;102310.94;5007456;28;20343;-32
2023/05/28 07:23:02;;;;;;;28.38;17.60;;;;;;;22.01;47.56;102316.34;5003963;28;20050;-33
2023/05/28 07:25:29;;;;;;;33.20;18.63;;;;;;;22.01;47.46;102322.56;5001556;28;20057;-33
2023/05/28 07:27:55;;;;;;;33.33;18.45;;;;;;;22.02;47.65;102320.72;5001601;28;20104;-32
2023/05/28 07:30:22;;;;;;;39.58;20.05;;;;;;;22.02;47.50;102324.28;5000836;28;20053;-33
2023/05/28 07:32:49;;;;;;;44.65;19.92;;;;;;;22.02;47.67;102329.66;5001682;28;20053;-33
2023/05/28 07:35:16;;;;;;;38.58;19.15;;;;;;;22.04;47.60;102329.56;5002473;28;20053;-32
2023/05/28 07:37:42;;;;;;;42.20;20.13;;;;;;;22.04;47.57;102329.56;5007362;28;20132;-32
2023/05/28 07:40:10;;;;;;;68.43;21.80;;;;;;;22.05;47.29;102329.41;5003302;28;20053;-33
2023/05/28 07:42:37;;;;;;;51.88;23.35;;;;;;;22.06;47.55;102336.50;5001082;28;20042;-33
2023/05/28 07:45:04;;;;;;;55.28;22.98;;;;;;;22.07;47.68;102332.81;5019192;28;20050;-32
2023/05/28 07:47:31;;;;;;;57.75;22.65;;;;;;;22.07;47.52;102335.50;5002987;28;20446;-33
2023/05/28 07:49:58;;;;;;;46.05;21.35;;;;;;;22.10;47.60;102326.25;5001251;28;20507;-33
2023/05/28 07:52:29;;;;;;;47.00;19.27;;;;;;;22.11;47.43;102328.84;5007356;28;20057;-32
2023/05/28 07:54:59;;;;;;;54.10;21.25;;;;;;;22.15;47.45;102334.81;5003146;28;20137;-32
2023/05/28 07:57:26;;;;;;;53.83;20.50;;;;;;;22.22;46.93;102338.63;5006589;28;20490;-32
2023/05/28 07:59:53;;;;;;;50.55;18.30;;;;;;;22.27;46.92;102336.38;5001230;28;20113;-32
2023/05/28 08:02:19;;;;;;;40.25;16.90;;;;;;;22.34;46.63;102339.31;5001912;28;20480;-32
2023/05/28 08:04:48;;;;;;;45.05;18.73;;;;;;;22.40;46.67;102342.31;5001740;28;20072;-32
2023/05/28 08:07:15;;;;;;;43.92;17.33;;;;;;;22.47;46.79;102339.00;5003869;28;20050;-32
2023/05/28 08:09:41;;;;;;;42.75;18.50;;;;;;;22.54;46.50;102334.72;5003837;28;20077;-33
2023/05/28 08:12:08;;;;;;;38.03;16.85;;;;;;;22.61;46.42;102341.25;5006571;28;20062;-32
2023/05/28 08:14:35;;;;;;;41.22;17.45;;;;;;;22.65;46.35;102343.50;5001018;28;20069;-33
2023/05/28 08:17:02;;;;;;;40.05;17.38;;;;;;;22.70;46.29;102344.91;5003425;28;20097;-32
2023/05/28 08:19:28;;;;;;;35.10;15.77;;;;;;;22.72;46.41;102338.38;5032552;28;20124;-32
2023/05/28 08:21:55;;;;;;;42.40;17.45;;;;;;;22.74;46.12;102343.59;5004103;28;20077;-32
2023/05/28 08:24:22;;;;;;;39.00;16.20;;;;;;;22.73;46.25;102331.94;5001354;28;20397;-33
2023/05/28 08:26:48;;;;;;;36.75;15.55;;;;;;;22.73;46.14;102334.66;4998667;28;20058;-32
2023/05/28 08:29:15;;;;;;;33.15;13.57;;;;;;;22.72;46.23;102332.97;5002742;28;20370;-33
2023/05/28 08:31:41;;;;;;;28.85;13.18;;;;;;;22.72;46.29;102337.50;4999404;28;20054;-32
2023/05/28 08:34:08;;;;;;;24.58;12.52;;;;;;;22.71;46.16;102339.34;5001589;28;20101;-33
2023/05/28 08:36:36;;;;;;;32.35;12.60;;;;;;;22.70;45.97;102331.38;4998647;28;20409;-33
2023/05/28 08:39:03;;;;;;;33.75;13.18;;;;;;;22.69;46.11;102317.03;5000442;28;20113;-32
2023/05/28 08:41:30;;;;;;;27.27;13.30;;;;;;;22.67;46.38;102321.72;5002116;28;20410;-33
2023/05/28 08:43:56;;;;;;;25.92;11.93;;;;;;;22.66;46.21;102322.72;5001218;28;20049;-33
2023/05/28 08:46:23;;;;;;;29.67;13.27;;;;;;;22.66;46.34;102328.97;4997306;28;20433;-33
2023/05/28 08:48:51;;;;;;;25.65;13.63;;;;;;;22.65;46.00;102327.28;5000752;28;20054;-32
2023/05/28 08:51:23;;;;;;;33.08;13.77;;;;;;;22.65;46.13;102331.84;5003182;28;20140;-32
2023/05/28 08:53:51;;;;;;;24.05;11.77;;;;;;;22.64;46.51;102324.75;5035398;28;20306;-33
2023/05/28 08:56:18;;;;;;;22.60;12.05;;;;;;;22.65;46.05;102321.03;5003864;28;20501;-33
2023/05/28 08:58:45;;;;;;;28.15;12.27;;;;;;;22.64;46.35;102320.19;5004165;28;20444;-33
2023/05/28 09:01:12;;;;;;;26.50;13.10;;;;;;;22.65;46.39;102316.47;5001273;28;20046;-32
2023/05/28 09:03:40;;;;;;;25.10;12.40;;;;;;;22.65;46.14;102316.47;5002904;28;20136;-32
2023/05/28 09:06:08;;;;;;;24.35;11.63;;;;;;;22.65;46.19;102321.03;5003370;28;20050;-33
2023/05/28 09:08:36;;;;;;;26.73;12.63;;;;;;;22.66;46.28;102315.47;5005976;28;20042;-32
2023/05/28 09:11:10;;;;;;;23.85;11.43;;;;;;;22.67;45.96;102321.72;5003160;28;20050;-33
2023/05/28 09:13:45;;;;;;;22.55;11.23;;;;;;;22.67;45.96;102317.19;5001299;28;20052;-32
2023/05/28 09:16:22;;;;;;;30.33;12.40;;;;;;;22.69;46.33;102308.91;5005953;28;20053;-33
2023/05/28 09:19:02;;;;;;;20.15;10.65;;;;;;;22.71;46.29;102320.41;5003927;28;20929;-33
2023/05/28 09:21:29;;;;;;;26.50;11.18;;;;;;;22.73;46.66;102315.72;5006302;28;20089;-33
2023/05/28 09:23:56;;;;;;;25.75;11.23;;;;;;;22.75;46.16;102318.28;5007101;28;20050;-33
2023/05/28 09:26:24;;;;;;;22.77;10.13;;;;;;;22.76;46.11;102320.84;5002036;28;20117;-32
2023/05/28 09:28:52;;;;;;;19.92;10.77;;;;;;;22.77;46.28;102319.00;4999279;28;20050;-34
2023/05/28 09:31:19;;;;;;;21.95;11.13;;;;;;;22.81;46.25;102323.09;5004181;28;20136;-33
2023/05/28 09:33:46;;;;;;;20.48;10.52;;;;;;;22.83;46.37;102321.09;5000003;28;20052;-34
2023/05/28 09:36:17;;;;;;;21.73;11.25;;;;;;;22.86;46.08;102318.94;5003115;28;20057;-33
2023/05/28 09:38:44;;;;;;;21.73;9.98;;;;;;;22.89;46.29;102315.09;5000792;28;20057;-32
2023/05/28 09:41:19;;;;;;;20.02;10.30;;;;;;;22.91;46.40;102326.63;4999600;28;20121;-33
2023/05/28 09:43:46;;;;;;;21.38;10.15;;;;;;;22.95;46.35;102316.34;5002805;28;20096;-33
2023/05/28 09:46:13;;;;;;;22.38;9.68;;;;;;;22.96;46.38;102313.53;5004973;28;20058;-32
2023/05/28 09:48:39;;;;;;;19.20;9.75;;;;;;;23.00;46.06;102316.78;5002394;28;20434;-33
2023/05/28 09:51:10;;;;;;;18.80;10.30;;;;;;;23.02;46.34;102312.06;5001856;28;20050;-33
2023/05/28 09:53:44;;;;;;;20.15;9.27;;;;;;;23.05;46.17;102311.75;5004389;28;20052;-32
2023/05/28 09:56:11;;;;;;;15.98;8.63;;;;;;;23.08;46.15;102312.31;4999321;28;20072;-32
2023/05/28 09:58:43;;;;;;;21.67;9.05;;;;;;;23.10;45.72;102313.00;5002640;28;20346;-32
2023/05/28 10:01:14;;;;;;;16.88;9.02;;;;;;;23.14;45.96;102308.13;4997580;28;20108;-32
2023/05/28 10:03:46;;;;;;;16.95;8.63;;;;;;;23.15;45.86;102309.84;4998817;28;20406;-32
2023/05/28 10:06:18;;;;;;;16.50;9.00;;;;;;;23.19;46.00;102305.81;5004637;28;20041;-31
2023/05/28 10:08:51;;;;;;;19.67;9.38;;;;;;;23.21;46.19;102309.25;5001239;28;20053;-32
2023/05/28 10:11:21;;;;;;;;;;;;;;;23.23;46.31;102309.06;5004033;28;20346;-32
2023/05/28 10:13:48;;;;;;;14.32;8.02;;;;;;;23.28;45.89;102312.19;5003496;28;19930;-32
2023/05/28 10:16:15;;;;;;;14.43;8.70;;;;;;;23.28;46.24;102310.34;5002404;28;20054;-32
2023/05/28 10:18:42;;;;;;;17.13;8.27;;;;;;;23.30;45.41;102310.19;5005714;28;20062;-33
2023/05/28 10:21:10;;;;;;;17.55;8.65;;;;;;;23.31;45.91;102307.31;5008202;28;20112;-33
2023/05/28 10:23:38;;;;;;;13.90;8.10;;;;;;;23.34;45.66;102306.16;5007369;28;20471;-33
2023/05/28 10:26:05;;;;;;;16.20;7.95;;;;;;;23.35;45.75;102308.69;5033164;28;20050;-32
2023/05/28 10:28:32;;;;;;;16.33;8.50;;;;;;;23.37;45.50;102305.84;5001056;28;20141;-32
2023/05/28 10:31:07;;;;;;;16.63;8.20;;;;;;;23.39;45.70;102306.53;5002245;28;20053;-32
2023/05/28 10:33:38;;;;;;;13.98;6.88;;;;;;;23.41;45.97;102307.25;4998805;28;20046;-33
2023/05/28 10:36:10;;;;;;;15.02;7.72;;;;;;;23.43;45.79;102304.38;5003265;28;20049;-32
2023/05/28 10:38:42;;;;;;;14.77;7.72;;;;;;;23.46;45.60;102313.03;5003785;28;20501;-32
2023/05/28 10:41:10;;;;;;;15.57;7.90;;;;;;;23.47;45.87;102305.78;5004203;28;20058;-32
2023/05/28 10:43:45;;;;;;;12.65;7.25;;;;;;;23.49;45.68;102312.75;5001445;28;20501;-32
2023/05/28 10:46:16;;;;;;;12.02;7.15;;;;;;;23.52;45.54;102319.72;5005506;28;20077;-33
2023/05/28 10:49:10;;;;;;;13.65;7.32;;;;;;;23.53;45.40;102324.97;5008222;28;20054;-33
2023/05/28 10:51:51;;;;;;;12.65;7.07;;;;;;;23.56;45.14;102319.25;5006311;28;20077;-32
2023/05/28 10:54:44;;;;;;;13.02;7.03;;;;;;;23.57;45.78;102318.25;5002442;28;20057;-32
2023/05/28 10:57:19;;;;;;;11.02;6.20;;;;;;;23.59;45.70;102313.50;5004001;28;20049;-32
2023/05/28 10:59:52;;;;;;;13.13;6.28;;;;;;;23.60;45.22;102312.53;5003737;28;20046;-32
2023/05/28 11:02:26;;;;;;;;;;;;;;;23.61;45.81;102321.50;5003657;28;20046;-32
2023/05/28 11:04:53;;;;;;;12.55;6.93;;;;;;;23.66;45.35;102318.34;5007695;28;20248;-33
2023/05/28 11:07:22;;;;;;;11.98;6.13;;;;;;;23.66;45.56;102311.06;5002146;28;20177;-33
2023/05/28 11:09:52;;;;;;;10.75;6.28;;;;;;;23.68;45.18;102311.78;5005029;28;20088;-33
2023/05/28 11:12:22;;;;;;;12.18;6.70;;;;;;;23.68;45.68;102314.50;5007135;28;20391;-32
2023/05/28 11:14:49;;;;;;;12.70;6.55;;;;;;;23.70;45.21;102308.91;5004714;28;20320;-32
2023/05/28 11:17:16;;;;;;;10.60;5.93;;;;;;;23.73;44.86;102306.75;5001602;28;20054;-33
2023/05/28 11:19:48;;;;;;;11.05;6.40;;;;;;;23.74;45.57;102305.72;5004158;28;20314;-33
2023/05/28 11:22:16;;;;;;;10.88;5.53;;;;;;;23.77;45.18;102307.28;5005892;28;20050;-32